Time;durP1;ratioP1;P1;durP2;ratioP2;P2;SDS_P1;SDS_P2;PMS_P1;PMS_P2;Temp;Humidity;BMP_temperature;BMP_pressure;BME280_temperature;BME280_humidity;BME280_pressure;Samples;Min_cycle;Max_cycle;Signal;HPM_P1;HPM_P2
2022/01/16 00:01:15;;;;;;;42.80;18.97;;;-0.10;99.90;;;;;;5113538;28;20051;-69
2022/01/16 00:06:26;;;;;;;38.33;18.27;;;0.10;99.90;;;;;;5113094;28;20177;-68
2022/01/16 00:08:53;;;;;;;45.13;20.33;;;0.10;99.90;;;;;;5112914;28;20126;-69
2022/01/16 00:11:23;;;;;;;36.67;18.93;;;0.10;99.90;;;;;;5112719;28;20135;-69
2022/01/16 00:13:50;;;;;;;42.47;20.07;;;0.00;99.90;;;;;;5112665;28;20048;-68
2022/01/16 00:16:17;;;;;;;41.30;19.80;;;0.00;99.90;;;;;;5112743;28;20384;-68
2022/01/16 00:18:50;;;;;;;45.17;21.40;;;0.10;99.90;;;;;;5112965;28;20051;-69
2022/01/16 00:21:18;;;;;;;54.47;23.40;;;0.20;99.90;;;;;;5113252;28;20051;-68
2022/01/16 00:23:45;;;;;;;44.93;21.40;;;0.10;99.90;;;;;;5113599;28;20138;-69
2022/01/16 00:26:13;;;;;;;47.77;22.60;;;0.10;99.90;;;;;;5129647;28;20311;-69
2022/01/16 00:28:41;;;;;;;47.30;23.00;;;0.10;99.90;;;;;;5126809;28;20075;-69
2022/01/16 00:31:08;;;;;;;45.33;22.27;;;0.20;99.90;;;;;;5112698;28;20055;-69
2022/01/16 00:33:38;;;;;;;48.57;24.40;;;0.20;99.90;;;;;;5112417;28;20047;-69
2022/01/16 00:36:06;;;;;;;41.87;22.70;;;0.20;99.90;;;;;;5112609;28;20074;-69
2022/01/16 00:38:33;;;;;;;46.63;23.07;;;0.10;99.90;;;;;;5112509;28;20130;-69
2022/01/16 00:41:01;;;;;;;47.73;23.13;;;0.10;99.90;;;;;;5112496;28;20390;-69
2022/01/16 00:43:27;;;;;;;49.53;24.10;;;0.20;99.90;;;;;;5112179;28;20079;-69
2022/01/16 00:45:56;;;;;;;45.23;22.63;;;0.20;99.90;;;;;;5112367;28;20130;-69
2022/01/16 00:48:23;;;;;;;44.70;21.93;;;0.20;99.90;;;;;;5112406;28;20130;-69
2022/01/16 00:50:50;;;;;;;36.97;20.17;;;0.30;99.90;;;;;;5112353;28;20098;-69
2022/01/16 00:53:17;;;;;;;41.03;21.40;;;0.20;99.90;;;;;;5111806;28;20577;-69
2022/01/16 00:55:43;;;;;;;41.53;20.77;;;0.20;99.90;;;;;;5111999;28;20130;-69
2022/01/16 00:58:10;;;;;;;40.97;20.00;;;0.30;99.90;;;;;;5112113;28;20508;-69
2022/01/16 01:00:38;;;;;;;42.07;19.57;;;0.20;99.90;;;;;;5112098;28;20126;-69
2022/01/16 01:03:07;;;;;;;43.60;20.73;;;0.20;99.90;;;;;;5112143;28;20459;-69
2022/01/16 01:05:34;;;;;;;41.27;20.23;;;0.20;99.90;;;;;;5111687;28;20051;-69
2022/01/16 01:08:02;;;;;;;41.60;21.07;;;0.20;99.90;;;;;;5112067;28;20138;-68
2022/01/16 01:10:32;;;;;;;46.27;21.27;;;0.20;99.90;;;;;;5111952;28;20091;-69
2022/01/16 01:13:10;;;;;;;43.03;21.17;;;0.20;99.90;;;;;;5111794;28;20051;-69
2022/01/16 01:15:42;;;;;;;41.37;19.50;;;0.20;99.90;;;;;;5112151;28;20055;-69
2022/01/16 01:18:10;;;;;;;41.20;20.77;;;0.30;99.90;;;;;;5112185;28;20056;-69
2022/01/16 01:20:40;;;;;;;41.73;19.37;;;0.30;99.90;;;;;;5111748;28;20135;-69
2022/01/16 01:23:07;;;;;;;38.77;19.17;;;0.30;99.90;;;;;;5111988;28;20112;-69
2022/01/16 01:25:35;;;;;;;40.97;21.13;;;0.40;99.90;;;;;;5111787;28;20070;-69
2022/01/16 01:28:02;;;;;;;39.20;18.90;;;0.40;99.90;;;;;;5112138;28;20079;-69
2022/01/16 01:30:29;;;;;;;39.27;19.97;;;0.40;99.90;;;;;;5111812;28;20087;-69
2022/01/16 01:32:56;;;;;;;39.87;19.97;;;0.40;99.90;;;;;;5112060;28;20468;-69
2022/01/16 01:35:25;;;;;;;42.07;20.03;;;0.40;99.90;;;;;;5111957;28;20095;-69
2022/01/16 01:37:52;;;;;;;37.30;17.40;;;0.40;99.90;;;;;;5111927;28;20510;-69
2022/01/16 01:40:22;;;;;;;36.33;18.03;;;0.30;99.90;;;;;;5111740;28;20130;-69
2022/01/16 01:43:02;;;;;;;37.90;18.00;;;0.30;99.90;;;;;;5111666;28;20482;-69
2022/01/16 01:51:09;;;;;;;33.83;16.60;;;0.40;99.90;;;;;;5111760;28;20088;-69
2022/01/16 01:53:37;;;;;;;39.33;18.77;;;0.50;99.90;;;;;;5111309;28;20043;-69
2022/01/16 01:56:05;;;;;;;38.47;18.17;;;0.60;99.90;;;;;;5111693;28;20245;-69
2022/01/16 01:58:32;;;;;;;34.77;16.83;;;0.60;99.90;;;;;;5111541;28;20086;-69
2022/01/16 02:00:59;;;;;;;38.77;16.60;;;0.60;99.90;;;;;;5111475;28;20131;-69
2022/01/16 02:03:32;;;;;;;32.57;15.73;;;0.60;99.90;;;;;;5112311;28;20138;-68
2022/01/16 02:06:00;;;;;;;34.03;14.93;;;0.60;99.90;;;;;;5111676;28;20146;-68
2022/01/16 02:08:29;;;;;;;27.83;13.40;;;0.60;99.90;;;;;;5111314;28;20128;-68
2022/01/16 02:10:57;;;;;;;30.13;13.67;;;0.50;99.90;;;;;;5111402;28;20131;-68
2022/01/16 02:13:28;;;;;;;32.27;13.67;;;0.50;99.90;;;;;;5111278;28;20499;-68
2022/01/16 02:32:48;;;;;;;35.97;17.10;;;0.50;99.90;;;;;;5114968;28;20090;-68
2022/01/16 02:35:14;;;;;;;33.90;17.30;;;0.50;99.90;;;;;;5114919;28;20060;-68
2022/01/16 02:37:41;;;;;;;39.45;17.52;;;0.50;99.90;;;;;;5114988;28;20050;-68
2022/01/16 02:40:18;;;;;;;43.03;19.77;;;0.50;99.90;;;;;;5115174;28;20043;-68
2022/01/16 02:42:50;;;;;;;38.73;18.30;;;0.50;99.90;;;;;;5124724;28;20151;-68
2022/01/16 02:45:28;;;;;;;39.10;17.37;;;0.50;99.90;;;;;;5137844;28;20043;-69
2022/01/16 02:47:55;;;;;;;41.80;17.90;;;0.50;99.90;;;;;;5128707;28;20081;-68
2022/01/16 02:50:23;;;;;;;41.30;18.27;;;0.50;99.90;;;;;;5115126;28;20093;-68
2022/01/16 02:52:50;;;;;;;43.50;19.53;;;0.50;99.90;;;;;;5114180;28;20055;-68
2022/01/16 02:55:20;;;;;;;45.63;20.70;;;0.50;99.90;;;;;;5114402;28;20517;-68
2022/01/16 02:57:48;;;;;;;41.77;20.63;;;0.50;99.90;;;;;;5115158;28;20047;-68
2022/01/16 03:00:15;;;;;;;47.87;20.60;;;0.50;99.90;;;;;;5114204;28;20051;-68
2022/01/16 03:02:42;;;;;;;45.33;19.43;;;0.60;99.90;;;;;;5114168;28;20091;-68
2022/01/16 03:05:10;;;;;;;51.83;20.63;;;0.50;99.90;;;;;;5113999;28;20109;-68
2022/01/16 03:07:37;;;;;;;44.73;19.57;;;0.50;99.90;;;;;;5114209;28;20138;-67
2022/01/16 03:10:25;;;;;;;47.07;20.30;;;0.50;99.90;;;;;;5114604;28;20135;-68
2022/01/16 03:12:54;;;;;;;48.27;20.70;;;0.50;99.90;;;;;;5114043;28;20108;-68
2022/01/16 03:15:22;;;;;;;48.47;20.83;;;0.50;99.90;;;;;;5113962;28;20040;-68
2022/01/16 03:23:20;;;;;;;47.78;20.40;;;0.50;99.90;;;;;;5113812;28;20058;-68
2022/01/16 03:25:48;;;;;;;50.63;20.87;;;0.50;99.90;;;;;;5114346;28;20408;-68
2022/01/16 03:28:17;;;;;;;56.27;21.20;;;0.50;99.90;;;;;;5122668;28;20087;-68
2022/01/16 03:30:44;;;;;;;51.23;20.57;;;0.40;99.90;;;;;;5136486;28;20031;-69
2022/01/16 03:33:11;;;;;;;52.43;21.63;;;0.50;99.90;;;;;;5114237;28;20151;-68
2022/01/16 03:35:39;;;;;;;50.37;19.90;;;0.50;99.90;;;;;;5113780;28;20051;-68
2022/01/16 03:38:06;;;;;;;48.97;20.53;;;0.40;99.90;;;;;;5114074;28;20054;-68
2022/01/16 03:40:33;;;;;;;52.37;22.57;;;0.40;99.90;;;;;;5113617;28;20127;-68
2022/01/16 03:43:11;;;;;;;50.53;19.83;;;0.50;99.90;;;;;;5113616;28;20094;-68
2022/01/16 03:45:40;;;;;;;47.23;19.43;;;0.50;99.90;;;;;;5113500;28;20056;-68
2022/01/16 03:48:07;;;;;;;51.23;17.77;;;0.40;99.90;;;;;;5113349;28;20499;-68
2022/01/16 03:50:34;;;;;;;49.97;18.47;;;0.40;99.90;;;;;;5113190;28;20086;-68
2022/01/16 03:53:01;;;;;;;51.13;19.47;;;0.40;99.90;;;;;;5206461;22;20025;-68
2022/01/16 03:55:28;;;;;;;52.37;19.33;;;0.40;99.90;;;;;;4970557;28;20093;-68
2022/01/16 03:57:55;;;;;;;51.40;19.00;;;0.40;99.90;;;;;;4971172;28;20134;-69
2022/01/16 04:00:22;;;;;;;56.53;20.60;;;0.40;99.90;;;;;;4971106;28;20566;-67
2022/01/16 04:02:50;;;;;;;51.93;19.13;;;0.40;99.90;;;;;;4970971;28;20126;-67
2022/01/16 04:05:17;;;;;;;50.37;18.37;;;0.50;99.90;;;;;;4970790;28;20137;-67
2022/01/16 04:07:44;;;;;;;47.33;17.23;;;0.40;99.90;;;;;;4970991;28;20054;-67
2022/01/16 04:10:12;;;;;;;56.47;20.47;;;0.40;99.90;;;;;;4971157;28;20086;-67
2022/01/16 04:12:39;;;;;;;53.97;20.93;;;0.40;99.90;;;;;;4970775;28;20191;-67
2022/01/16 04:17:55;;;;;;;52.20;19.48;;;0.50;99.90;;;;;;4971067;28;20520;-67
2022/01/16 04:20:21;;;;;;;60.20;20.43;;;0.50;99.90;;;;;;4970808;28;20086;-68
2022/01/16 04:22:48;;;;;;;62.50;20.40;;;0.50;99.90;;;;;;4970840;28;20579;-67
2022/01/16 04:25:16;;;;;;;64.20;19.43;;;0.50;99.90;;;;;;4970494;28;20138;-68
2022/01/16 04:27:43;;;;;;;56.40;20.23;;;0.50;99.90;;;;;;4971430;28;20062;-67
2022/01/16 04:30:11;;;;;;;56.77;20.60;;;0.50;99.90;;;;;;4971053;28;20146;-67
2022/01/16 04:32:38;;;;;;;58.97;19.57;;;0.50;99.90;;;;;;4970611;28;20090;-68
2022/01/16 04:35:08;;;;;;;55.70;19.93;;;0.50;99.90;;;;;;4970465;28;20051;-67
2022/01/16 04:37:35;;;;;;;72.63;21.03;;;0.50;99.90;;;;;;4970681;28;20098;-67
2022/01/16 04:40:03;;;;;;;63.43;20.10;;;0.60;99.90;;;;;;4969998;28;20149;-68
2022/01/16 04:45:15;;;;;;;63.43;18.50;;;0.50;99.90;;;;;;4970104;28;20093;-67
2022/01/16 04:47:42;;;;;;;55.17;18.70;;;0.50;99.90;;;;;;4970638;28;20138;-67
2022/01/16 04:50:13;;;;;;;54.37;18.83;;;0.50;99.90;;;;;;4970625;28;20157;-67
2022/01/16 04:52:42;;;;;;;60.07;18.80;;;0.50;99.90;;;;;;4970604;28;20050;-67
2022/01/16 04:55:11;;;;;;;64.77;20.40;;;0.50;99.90;;;;;;4969971;28;20058;-67
2022/01/16 04:57:38;;;;;;;57.77;17.50;;;0.50;99.90;;;;;;4970532;28;20058;-68
2022/01/16 05:00:08;;;;;;;61.90;19.20;;;0.50;99.90;;;;;;4970350;28;20142;-67
2022/01/16 05:02:35;;;;;;;55.00;18.37;;;0.50;99.90;;;;;;4970584;28;20133;-68
2022/01/16 05:05:02;;;;;;;53.10;16.50;;;0.50;99.90;;;;;;4969927;28;20138;-68
2022/01/16 05:07:30;;;;;;;53.73;17.63;;;0.50;99.90;;;;;;4970299;28;20105;-68
2022/01/16 05:09:57;;;;;;;56.53;18.97;;;0.50;99.90;;;;;;4970852;28;20053;-67
2022/01/16 05:12:31;;;;;;;60.47;19.17;;;0.50;99.90;;;;;;4969967;28;20130;-68
2022/01/16 05:17:42;;;;;;;56.07;17.67;;;0.60;99.90;;;;;;4970162;28;20085;-67
2022/01/16 05:20:10;;;;;;;49.37;17.17;;;0.60;99.90;;;;;;4970107;28;20053;-68
2022/01/16 05:22:38;;;;;;;52.37;17.37;;;0.60;99.90;;;;;;4969878;28;20590;-67
2022/01/16 05:25:07;;;;;;;54.43;17.50;;;0.60;99.90;;;;;;4969846;28;20519;-67
2022/01/16 05:27:35;;;;;;;59.30;18.20;;;0.50;99.90;;;;;;4972429;28;20066;-67
2022/01/16 05:30:02;;;;;;;65.03;19.33;;;0.60;99.90;;;;;;4971676;28;20055;-68
2022/01/16 05:32:29;;;;;;;63.60;19.33;;;0.60;99.90;;;;;;4970620;28;20047;-68
2022/01/16 05:34:56;;;;;;;55.73;17.63;;;0.60;99.90;;;;;;4969539;28;20086;-68
2022/01/16 05:37:23;;;;;;;53.43;17.30;;;0.60;99.90;;;;;;4969665;28;20078;-67
2022/01/16 05:39:51;;;;;;;46.77;15.43;;;0.60;99.90;;;;;;4969850;28;20485;-67
2022/01/16 05:42:18;;;;;;;55.20;17.10;;;0.50;99.90;;;;;;4969717;28;20503;-67
2022/01/16 05:44:45;;;;;;;53.97;16.13;;;0.60;99.90;;;;;;4969488;28;20474;-68
2022/01/16 05:47:13;;;;;;;58.47;17.23;;;0.50;99.90;;;;;;4969695;28;20138;-67
2022/01/16 05:49:42;;;;;;;52.37;16.53;;;0.50;99.90;;;;;;4969619;28;20086;-67
2022/01/16 05:52:09;;;;;;;57.00;17.27;;;0.60;99.90;;;;;;4971358;28;20051;-67
2022/01/16 05:54:36;;;;;;;52.83;15.57;;;0.60;99.90;;;;;;4972933;28;20090;-67
2022/01/16 05:57:05;;;;;;;50.60;14.63;;;0.60;99.90;;;;;;4972740;28;20134;-67
2022/01/16 05:59:32;;;;;;;48.40;14.10;;;0.60;99.90;;;;;;4972993;28;20134;-67
2022/01/16 06:01:59;;;;;;;50.60;15.73;;;0.60;99.90;;;;;;4972744;28;20055;-67
2022/01/16 06:04:26;;;;;;;49.73;15.43;;;0.60;99.90;;;;;;4972679;28;20063;-67
2022/01/16 06:06:53;;;;;;;44.27;14.57;;;0.60;99.90;;;;;;4972708;28;20120;-68
2022/01/16 06:09:20;;;;;;;52.83;14.67;;;0.60;99.90;;;;;;4973064;28;20128;-67
2022/01/16 06:11:47;;;;;;;47.63;14.20;;;0.60;99.90;;;;;;4972623;28;20502;-68
2022/01/16 06:14:15;;;;;;;50.27;15.67;;;0.60;99.90;;;;;;4972661;28;20146;-67
2022/01/16 06:16:42;;;;;;;46.73;14.20;;;0.60;99.90;;;;;;4972338;28;20141;-67
2022/01/16 06:19:09;;;;;;;50.53;15.83;;;0.60;99.90;;;;;;4972703;28;20054;-67
2022/01/16 06:21:36;;;;;;;56.43;16.80;;;0.60;99.90;;;;;;4972740;28;20139;-68
2022/01/16 06:24:03;;;;;;;59.67;17.20;;;0.60;99.90;;;;;;4972726;28;20074;-68
2022/01/16 06:26:31;;;;;;;53.63;16.57;;;0.70;99.90;;;;;;4972561;28;20059;-67
2022/01/16 06:28:59;;;;;;;51.23;16.60;;;0.70;99.90;;;;;;4972515;28;20050;-68
2022/01/16 06:31:27;;;;;;;54.17;17.00;;;0.70;99.90;;;;;;4972559;28;20062;-67
2022/01/16 06:33:54;;;;;;;56.47;17.53;;;0.70;99.90;;;;;;4972262;28;20145;-67
2022/01/16 06:36:21;;;;;;;51.87;16.60;;;0.70;99.90;;;;;;4971968;28;20083;-68
2022/01/16 06:38:48;;;;;;;55.17;17.00;;;0.70;99.90;;;;;;4972367;28;20518;-67
2022/01/16 06:41:15;;;;;;;56.87;18.37;;;0.60;99.90;;;;;;4973486;28;20058;-68
2022/01/16 06:43:42;;;;;;;55.33;17.90;;;0.60;99.90;;;;;;4972135;28;20506;-67
2022/01/16 06:46:09;;;;;;;57.23;17.60;;;0.60;99.90;;;;;;4971763;28;20517;-67
2022/01/16 06:48:37;;;;;;;61.30;17.17;;;0.70;99.90;;;;;;4972105;28;20047;-67
2022/01/16 06:51:05;;;;;;;59.33;18.17;;;0.60;99.90;;;;;;4972323;28;20101;-68
2022/01/16 06:53:32;;;;;;;60.67;18.07;;;0.60;99.90;;;;;;4971835;28;20134;-67
2022/01/16 06:56:00;;;;;;;58.37;18.70;;;0.60;99.90;;;;;;4971701;28;20047;-68
2022/01/16 06:58:27;;;;;;;57.00;18.47;;;0.70;99.90;;;;;;4972148;28;20142;-68
2022/01/16 07:00:54;;;;;;;60.00;17.57;;;0.70;99.90;;;;;;4973153;28;20137;-67
2022/01/16 07:03:23;;;;;;;67.23;20.47;;;0.70;99.90;;;;;;4972865;28;20054;-68
2022/01/16 07:05:51;;;;;;;60.97;19.83;;;0.70;99.90;;;;;;4972336;28;20086;-67
2022/01/16 07:08:22;;;;;;;61.50;19.63;;;0.70;99.90;;;;;;4972452;28;20047;-67
2022/01/16 07:10:50;;;;;;;63.63;19.03;;;0.70;99.90;;;;;;4972251;28;20051;-67
2022/01/16 07:13:17;;;;;;;54.87;18.20;;;0.70;99.90;;;;;;4973024;28;20057;-67
2022/01/16 07:15:44;;;;;;;70.03;20.73;;;0.70;99.90;;;;;;4973363;28;20086;-68
2022/01/16 07:18:11;;;;;;;72.77;21.00;;;0.70;99.90;;;;;;4973399;28;20051;-67
2022/01/16 07:20:44;;;;;;;67.43;19.30;;;0.70;99.90;;;;;;4972712;28;20141;-68
2022/01/16 07:23:16;;;;;;;67.07;19.07;;;0.70;99.90;;;;;;4971341;28;20419;-68
2022/01/16 07:25:44;;;;;;;59.17;18.03;;;0.70;99.90;;;;;;4971360;28;20116;-68
2022/01/16 07:28:11;;;;;;;64.50;19.27;;;0.70;99.90;;;;;;4971768;28;20137;-67
2022/01/16 07:30:40;;;;;;;68.70;19.03;;;0.70;99.90;;;;;;4971523;28;20046;-68
2022/01/16 07:33:13;;;;;;;56.93;16.97;;;0.70;99.90;;;;;;4971515;28;20145;-67
2022/01/16 07:35:40;;;;;;;52.80;16.30;;;0.60;99.90;;;;;;4971139;28;20051;-68
2022/01/16 07:38:09;;;;;;;56.53;18.07;;;0.60;99.90;;;;;;4971621;28;20129;-67
2022/01/16 07:40:38;;;;;;;54.17;16.97;;;0.60;99.90;;;;;;4971519;28;20102;-67
2022/01/16 07:43:05;;;;;;;55.07;17.27;;;0.60;99.90;;;;;;4971263;28;20146;-67
2022/01/16 07:45:32;;;;;;;53.90;18.20;;;0.60;99.90;;;;;;4971217;28;20086;-67
2022/01/16 07:47:59;;;;;;;56.93;17.50;;;0.70;99.90;;;;;;4971423;28;20050;-67
2022/01/16 07:50:28;;;;;;;50.83;16.67;;;0.80;99.90;;;;;;4971463;28;20142;-67
2022/01/16 07:52:55;;;;;;;56.03;17.80;;;0.70;99.90;;;;;;4971205;28;20058;-68
2022/01/16 07:55:26;;;;;;;49.57;17.03;;;0.70;99.90;;;;;;4971305;28;20471;-67
2022/01/16 07:57:54;;;;;;;57.40;18.00;;;0.70;99.90;;;;;;4971595;28;20058;-67
2022/01/16 08:00:21;;;;;;;59.13;18.20;;;0.70;99.90;;;;;;4971175;28;20498;-68
2022/01/16 08:02:51;;;;;;;57.00;17.90;;;0.70;99.90;;;;;;4971209;28;20058;-67
2022/01/16 08:05:19;;;;;;;50.40;14.10;;;0.70;99.90;;;;;;4971101;28;20059;-68
2022/01/16 08:07:46;;;;;;;46.50;15.00;;;0.70;99.90;;;;;;4971136;28;20138;-67
2022/01/16 08:10:13;;;;;;;46.50;15.73;;;0.60;99.90;;;;;;4971413;28;20052;-68
2022/01/16 08:12:40;;;;;;;47.30;15.03;;;0.70;99.90;;;;;;4971575;28;20133;-67
2022/01/16 08:15:10;;;;;;;50.40;17.67;;;0.70;99.90;;;;;;4970438;28;20451;-67
2022/01/16 08:17:37;;;;;;;49.60;17.40;;;0.80;99.90;;;;;;4971654;28;20104;-69
2022/01/16 08:20:06;;;;;;;48.67;15.47;;;0.80;99.90;;;;;;4972275;28;20050;-67
2022/01/16 08:22:33;;;;;;;50.20;17.50;;;0.80;99.90;;;;;;4971958;28;20129;-67
2022/01/16 08:25:00;;;;;;;44.57;15.60;;;0.80;99.90;;;;;;4971351;28;20474;-68
2022/01/16 08:27:26;;;;;;;42.67;15.60;;;0.80;99.90;;;;;;4971209;28;20570;-67
2022/01/16 08:29:54;;;;;;;53.00;18.73;;;0.80;99.90;;;;;;4971259;28;20416;-68
2022/01/16 08:32:22;;;;;;;47.57;16.73;;;0.80;99.90;;;;;;4971664;28;20108;-68
2022/01/16 08:34:52;;;;;;;48.53;17.80;;;0.80;99.90;;;;;;4971527;28;20130;-68
2022/01/16 08:37:19;;;;;;;54.80;18.47;;;0.80;99.90;;;;;;4971274;28;20058;-67
2022/01/16 08:39:47;;;;;;;42.03;14.93;;;0.90;99.90;;;;;;4970669;28;20061;-67
2022/01/16 08:42:17;;;;;;;46.07;15.60;;;0.80;99.90;;;;;;4970285;28;20481;-67
2022/01/16 08:44:44;;;;;;;51.40;16.53;;;0.80;99.90;;;;;;4970324;28;20134;-67
2022/01/16 08:47:11;;;;;;;44.77;14.17;;;0.80;99.90;;;;;;4970389;28;20134;-68
2022/01/16 08:49:41;;;;;;;43.33;14.30;;;0.80;99.90;;;;;;4970584;28;20133;-67
2022/01/16 08:52:08;;;;;;;43.90;15.23;;;0.80;99.90;;;;;;4970269;28;20129;-68
2022/01/16 08:54:38;;;;;;;40.90;14.07;;;0.80;99.90;;;;;;4970025;28;20051;-66
2022/01/16 08:57:05;;;;;;;39.60;13.57;;;0.70;99.90;;;;;;4970389;28;20141;-67
2022/01/16 08:59:32;;;;;;;35.50;12.77;;;0.60;99.90;;;;;;4970222;28;20053;-67
2022/01/16 09:02:05;;;;;;;38.03;13.20;;;0.70;99.90;;;;;;4970113;28;20054;-67
2022/01/16 09:04:31;;;;;;;40.60;13.67;;;0.60;99.90;;;;;;4970260;28;20064;-67
2022/01/16 09:07:01;;;;;;;44.47;14.43;;;0.70;99.90;;;;;;4969931;28;20051;-68
2022/01/16 09:09:30;;;;;;;40.00;13.50;;;0.60;99.90;;;;;;4970160;28;20061;-67
2022/01/16 09:11:57;;;;;;;44.50;14.67;;;0.60;99.90;;;;;;4970222;28;20077;-69
2022/01/16 09:14:24;;;;;;;43.03;16.20;;;0.70;99.90;;;;;;4969934;28;20055;-67
2022/01/16 09:16:50;;;;;;;40.90;14.53;;;0.60;99.90;;;;;;4969850;28;20086;-68
2022/01/16 09:19:17;;;;;;;42.33;14.23;;;0.60;99.90;;;;;;4969939;28;20491;-68
2022/01/16 09:21:44;;;;;;;41.27;15.50;;;0.50;99.90;;;;;;4969824;28;20057;-67
2022/01/16 09:24:13;;;;;;;48.23;16.50;;;0.50;99.90;;;;;;4970050;28;20053;-67
2022/01/16 09:26:40;;;;;;;38.27;14.07;;;0.60;99.90;;;;;;4972240;28;20503;-67
2022/01/16 09:29:06;;;;;;;36.57;12.97;;;0.50;99.90;;;;;;4973312;28;20051;-68
2022/01/16 09:31:33;;;;;;;31.80;11.53;;;0.50;99.90;;;;;;4973260;28;20139;-67
2022/01/16 09:34:00;;;;;;;39.20;15.77;;;0.50;99.90;;;;;;4973335;28;20079;-68
2022/01/16 09:36:27;;;;;;;39.13;13.93;;;0.50;99.90;;;;;;4972720;28;20055;-67
2022/01/16 09:38:55;;;;;;;43.37;15.43;;;0.50;99.90;;;;;;4973144;28;20141;-67
2022/01/16 09:41:27;;;;;;;40.87;14.37;;;0.60;99.90;;;;;;4981770;28;20085;-68
2022/01/16 09:43:56;;;;;;;35.87;13.43;;;0.70;99.90;;;;;;4976536;28;20097;-68
2022/01/16 09:46:23;;;;;;;37.57;14.20;;;0.70;99.90;;;;;;4974763;28;20108;-67
2022/01/16 09:48:50;;;;;;;32.30;13.43;;;0.70;99.90;;;;;;4972988;28;20409;-67
2022/01/16 09:51:17;;;;;;;37.20;15.37;;;0.70;99.90;;;;;;4973304;28;20066;-67
2022/01/16 09:53:44;;;;;;;37.53;15.00;;;0.80;99.90;;;;;;4993037;23;20048;-69
2022/01/16 09:56:17;;;;;;;45.43;15.90;;;0.80;99.90;;;;;;4992965;28;20137;-69
2022/01/16 09:58:46;;;;;;;33.00;13.30;;;0.90;99.90;;;;;;4992684;28;20133;-69
2022/01/16 10:01:13;;;;;;;36.77;14.63;;;0.90;99.90;;;;;;4993003;28;20089;-69
2022/01/16 10:03:44;;;;;;;40.57;15.27;;;0.80;99.90;;;;;;4992955;28;20149;-68
2022/01/16 10:06:15;;;;;;;38.57;15.40;;;0.90;99.90;;;;;;4992708;28;20073;-68
2022/01/16 10:08:43;;;;;;;34.60;15.43;;;0.80;99.90;;;;;;4992747;28;20053;-68
2022/01/16 10:11:22;;;;;;;38.90;14.87;;;0.80;99.90;;;;;;4995146;28;20055;-68
2022/01/16 10:13:57;;;;;;;38.70;15.37;;;0.80;99.90;;;;;;4992501;28;20141;-68
2022/01/16 10:16:29;;;;;;;37.03;14.97;;;0.80;99.90;;;;;;4993695;28;20141;-68
2022/01/16 10:18:57;;;;;;;38.57;15.50;;;0.80;99.90;;;;;;4992531;28;20290;-68
2022/01/16 10:21:40;;;;;;;36.53;14.33;;;0.80;99.90;;;;;;4992350;28;20129;-68
2022/01/16 10:24:22;;;;;;;38.30;14.30;;;0.80;99.90;;;;;;4992401;28;20050;-69
2022/01/16 10:27:10;;;;;;;38.43;15.10;;;0.90;99.90;;;;;;4992167;28;20141;-68
2022/01/16 10:29:41;;;;;;;42.03;16.27;;;0.80;99.90;;;;;;4992722;28;20487;-68
2022/01/16 10:32:13;;;;;;;41.43;15.63;;;0.90;99.90;;;;;;4992313;28;20137;-68
2022/01/16 10:34:42;;;;;;;42.40;16.40;;;0.90;99.90;;;;;;4992304;28;20054;-69
2022/01/16 10:37:25;;;;;;;46.80;17.50;;;0.90;99.90;;;;;;4991395;28;20485;-69
2022/01/16 10:40:00;;;;;;;41.47;17.07;;;0.90;99.90;;;;;;4992147;28;20050;-68
2022/01/16 10:42:29;;;;;;;41.80;18.43;;;1.00;99.90;;;;;;4991708;28;20137;-69
2022/01/16 10:44:59;;;;;;;47.70;16.70;;;0.90;99.90;;;;;;4992024;28;20050;-69
2022/01/16 10:47:37;;;;;;;43.97;17.30;;;1.00;99.90;;;;;;4991652;28;20137;-69
2022/01/16 10:50:15;;;;;;;43.53;17.67;;;0.90;99.90;;;;;;4991581;28;20129;-69
2022/01/16 10:52:54;;;;;;;48.47;18.00;;;1.00;99.90;;;;;;4991725;28;20133;-69
2022/01/16 10:55:25;;;;;;;44.73;17.70;;;1.00;99.90;;;;;;4991044;28;20058;-69
2022/01/16 10:58:01;;;;;;;52.20;18.90;;;1.00;99.90;;;;;;4991648;28;20137;-69
2022/01/16 11:00:30;;;;;;;39.35;14.70;;;1.00;99.90;;;;;;4991735;28;20129;-69
2022/01/16 11:03:01;;;;;;;44.70;16.63;;;1.00;99.90;;;;;;4991366;28;20475;-69
2022/01/16 11:05:28;;;;;;;47.83;19.27;;;0.90;99.90;;;;;;4991389;28;20061;-69
2022/01/16 11:07:58;;;;;;;50.47;18.77;;;0.90;99.90;;;;;;4991393;28;20387;-69
2022/01/16 11:10:28;;;;;;;49.83;18.70;;;1.00;99.90;;;;;;4991472;28;20141;-69
2022/01/16 11:13:00;;;;;;;51.13;20.20;;;1.00;99.90;;;;;;4991053;28;20137;-69
2022/01/16 11:15:28;;;;;;;52.00;19.17;;;1.10;99.90;;;;;;4991209;28;20090;-69
2022/01/16 11:17:56;;;;;;;53.27;21.63;;;1.10;99.90;;;;;;4991232;28;20164;-69
2022/01/16 11:20:29;;;;;;;51.97;20.30;;;1.10;99.90;;;;;;4991218;28;20487;-69
2022/01/16 11:23:04;;;;;;;48.70;19.17;;;1.20;99.90;;;;;;4991309;28;20174;-69
2022/01/16 11:25:38;;;;;;;51.63;21.37;;;1.20;99.90;;;;;;4990993;28;20050;-69
2022/01/16 11:28:08;;;;;;;45.77;16.93;;;1.20;99.90;;;;;;4991297;28;20058;-69
2022/01/16 11:30:42;;;;;;;36.23;15.57;;;1.20;99.90;;;;;;4991577;28;20136;-69
2022/01/16 11:33:10;;;;;;;35.87;14.97;;;1.20;99.90;;;;;;4990977;28;20593;-69
2022/01/16 11:35:43;;;;;;;39.57;16.00;;;1.10;99.90;;;;;;4991188;28;20571;-69
2022/01/16 11:38:17;;;;;;;39.57;16.10;;;1.20;99.90;;;;;;4991207;28;20429;-69
2022/01/16 11:40:49;;;;;;;49.60;18.47;;;1.20;99.90;;;;;;4990858;28;20137;-69
2022/01/16 11:43:25;;;;;;;32.63;12.57;;;1.10;99.90;;;;;;4991034;28;20054;-69
2022/01/16 11:45:55;;;;;;;31.23;11.70;;;1.00;99.90;;;;;;4990598;28;20532;-69
2022/01/16 11:48:50;;;;;;;46.43;17.90;;;0.90;99.90;;;;;;4990097;28;20065;-69
2022/01/16 11:51:52;;;;;;;52.07;21.63;;;1.00;99.90;;;;;;4992434;28;20344;-69
2022/01/16 11:54:27;;;;;;;50.90;19.87;;;1.00;99.90;;;;;;4991028;28;20054;-69
2022/01/16 11:57:04;;;;;;;50.43;19.50;;;1.00;99.90;;;;;;4973218;28;20051;-69
2022/01/16 11:59:38;;;;;;;47.30;18.48;;;1.00;99.90;;;;;;4985781;28;20053;-69
2022/01/16 12:02:20;;;;;;;48.33;19.30;;;1.10;99.90;;;;;;4981885;28;20086;-69
2022/01/16 12:05:06;;;;;;;51.17;20.33;;;1.20;99.90;;;;;;4973413;28;20134;-69
2022/01/16 12:07:47;;;;;;;50.33;19.70;;;1.20;99.90;;;;;;4973733;28;20494;-69
2022/01/16 12:10:43;;;;;;;56.00;21.17;;;1.20;99.90;;;;;;4971811;28;20062;-69
2022/01/16 12:13:56;;;;;;;42.93;19.07;;;1.10;99.90;;;;;;4971053;28;20422;-69
2022/01/16 12:16:44;;;;;;;47.07;18.87;;;1.10;99.90;;;;;;4970946;28;20058;-69
2022/01/16 12:19:44;;;;;;;49.73;19.93;;;1.20;99.90;;;;;;4971088;28;20478;-69
2022/01/16 12:22:15;;;;;;;49.20;18.53;;;1.20;99.90;;;;;;4970754;28;20473;-69
2022/01/16 12:24:44;;;;;;;53.50;19.93;;;1.20;99.90;;;;;;4970933;28;20069;-69
2022/01/16 12:27:26;;;;;;;46.67;18.13;;;1.20;99.90;;;;;;4970859;28;20055;-69
2022/01/16 12:30:23;;;;;;;45.23;19.93;;;1.30;99.90;;;;;;4970861;28;20086;-69
2022/01/16 12:32:55;;;;;;;46.07;17.83;;;1.30;99.90;;;;;;4970868;28;20057;-69
2022/01/16 12:36:11;;;;;;;42.23;16.13;;;1.20;99.90;;;;;;4970853;28;20141;-69
2022/01/16 12:38:58;;;;;;;44.27;18.80;;;1.30;99.90;;;;;;4970501;28;20062;-69
2022/01/16 12:41:28;;;;;;;42.65;17.00;;;1.30;99.90;;;;;;4970775;28;20146;-69
2022/01/16 12:44:01;;;;;;;39.23;15.13;;;1.40;99.90;;;;;;4970911;28;20063;-69
2022/01/16 12:46:31;;;;;;;37.07;15.10;;;1.40;99.90;;;;;;4970743;28;20145;-69
2022/01/16 12:49:02;;;;;;;38.57;14.93;;;1.30;99.90;;;;;;4971102;28;20138;-69
2022/01/16 12:51:31;;;;;;;40.30;16.30;;;1.30;99.90;;;;;;4971014;28;20059;-69
2022/01/16 12:54:03;;;;;;;37.13;15.60;;;1.30;99.90;;;;;;4971938;28;20486;-69
2022/01/16 12:56:33;;;;;;;38.47;15.73;;;1.30;99.90;;;;;;4971348;28;20137;-69
2022/01/16 12:59:11;;;;;;;38.00;14.87;;;1.40;99.90;;;;;;4970800;28;20061;-69
2022/01/16 13:01:38;;;;;;;38.70;15.67;;;1.30;99.90;;;;;;4970474;28;20086;-69
2022/01/16 13:04:05;;;;;;;33.33;13.90;;;1.30;99.90;;;;;;4970774;28;20491;-69
2022/01/16 13:06:34;;;;;;;38.70;15.00;;;1.30;99.90;;;;;;4970533;28;20137;-69
2022/01/16 13:09:05;;;;;;;39.47;17.00;;;1.40;99.90;;;;;;4970951;28;20094;-69
2022/01/16 13:11:37;;;;;;;38.50;15.63;;;1.40;99.90;;;;;;4971655;28;20164;-69
2022/01/16 13:14:07;;;;;;;37.87;16.97;;;1.40;99.90;;;;;;4971566;28;20050;-69
2022/01/16 13:16:35;;;;;;;39.07;15.97;;;1.40;99.90;;;;;;4970977;28;20142;-69
2022/01/16 13:19:09;;;;;;;36.50;15.63;;;1.40;99.90;;;;;;4970227;28;20138;-69
2022/01/16 13:22:03;;;;;;;37.93;15.73;;;1.40;99.90;;;;;;4970658;28;20059;-69
2022/01/16 13:24:35;;;;;;;35.03;15.17;;;1.40;99.90;;;;;;4971026;28;20100;-69
2022/01/16 13:27:05;;;;;;;36.73;15.47;;;1.40;99.90;;;;;;4970513;28;20147;-69
2022/01/16 13:29:36;;;;;;;35.70;14.53;;;1.40;99.90;;;;;;4970820;28;20097;-69